Terminal Aerodrome Forecast
Issued by NWS

Home | Current Version | Previous Version | Text Only | Print | Product List | Glossary On
Versions: 1 2 3 4 5 6 7 8 9 10 11 12 13 14 15 16 17 18 19 20 21 22 23 24 25 26 27
000
FTUS41 KBOX 221136
TAFHYA
TAF
KHYA 221136Z 2212/2312 04004KT P6SM SCT050
     FM221400 04006KT P6SM OVC015
     FM222100 06004KT P6SM BKN010
     FM230000 VRB03KT P6SM BKN010
     FM230200 10008KT P6SM BKN010
     FM230600 10010G18KT P6SM OVC010=

USA.gov is the U.S. government's official web portal to all federal, state and local government web resources and services.